createdAt,value
2022-12-22T00:00:02.127Z,62.69
2022-12-22T00:02:47.379Z,63.05
2022-12-22T00:05:32.522Z,62.55
2022-12-22T00:08:17.239Z,62.53
2022-12-22T00:11:01.912Z,62.51
2022-12-22T00:13:46.718Z,61.97
2022-12-22T00:16:31.510Z,61.91
2022-12-22T00:19:16.343Z,61.38
2022-12-22T00:22:01.148Z,61.80
2022-12-22T00:24:45.975Z,62.72
2022-12-22T00:27:30.555Z,62.96
2022-12-22T00:30:15.290Z,63.41
2022-12-22T00:33:00.059Z,63.61
2022-12-22T00:35:44.871Z,63.31
2022-12-22T00:38:29.580Z,62.96
2022-12-22T00:41:14.324Z,62.29
2022-12-22T00:43:59.110Z,62.26
2022-12-22T00:46:43.983Z,62.67
2022-12-22T00:49:29.122Z,62.97
2022-12-22T00:52:13.828Z,63.37
2022-12-22T00:54:58.656Z,63.46
2022-12-22T00:57:43.881Z,63.30
2022-12-22T01:00:28.592Z,63.72
2022-12-22T01:03:13.411Z,64.17
2022-12-22T01:05:58.596Z,63.77
2022-12-22T01:08:43.325Z,63.40
2022-12-22T01:11:28.072Z,63.13
2022-12-22T01:14:12.871Z,62.65
2022-12-22T01:16:57.576Z,62.49
2022-12-22T01:19:42.421Z,62.00
2022-12-22T01:22:27.175Z,62.38
2022-12-22T01:25:12.160Z,61.57
2022-12-22T01:27:57.020Z,61.74
2022-12-22T01:30:41.713Z,61.95
2022-12-22T01:33:26.389Z,62.14
2022-12-22T01:36:11.076Z,62.27
2022-12-22T01:38:55.813Z,62.37
2022-12-22T01:41:40.385Z,62.75
2022-12-22T01:44:25.161Z,63.11
2022-12-22T01:47:09.949Z,63.59
2022-12-22T01:49:54.777Z,63.20
2022-12-22T01:52:39.524Z,63.04
2022-12-22T01:55:24.268Z,62.45
2022-12-22T01:58:08.881Z,63.11
2022-12-22T02:00:53.598Z,62.88
2022-12-22T02:03:38.560Z,63.06
2022-12-22T02:06:23.131Z,63.14
2022-12-22T02:09:07.930Z,62.67
2022-12-22T02:11:52.506Z,62.34
2022-12-22T02:14:37.338Z,62.11
2022-12-22T02:17:21.988Z,62.40
2022-12-22T02:20:06.904Z,61.80
2022-12-22T02:22:51.513Z,62.54
2022-12-22T02:25:36.175Z,63.01
2022-12-22T02:28:20.868Z,62.54
2022-12-22T02:31:05.706Z,63.25
2022-12-22T02:33:50.534Z,62.70
2022-12-22T02:36:35.230Z,62.54
2022-12-22T02:39:20.027Z,62.95
2022-12-22T02:42:04.672Z,62.51
2022-12-22T02:44:49.550Z,62.24
2022-12-22T02:47:34.240Z,61.72
2022-12-22T02:50:19.020Z,61.51
2022-12-22T02:53:03.800Z,62.02
2022-12-22T02:55:48.542Z,62.55
2022-12-22T02:58:33.851Z,62.86
2022-12-22T03:01:18.622Z,62.80
2022-12-22T03:04:03.439Z,62.99
2022-12-22T03:06:48.275Z,63.95
2022-12-22T03:09:33.035Z,63.61
2022-12-22T03:12:17.722Z,63.57
2022-12-22T03:15:02.714Z,63.32
2022-12-22T03:17:47.387Z,62.62
2022-12-22T03:20:32.054Z,62.46
2022-12-22T03:23:16.739Z,62.97
2022-12-22T03:26:01.537Z,63.34
2022-12-22T03:28:46.217Z,63.03
2022-12-22T03:31:31.240Z,62.35
2022-12-22T03:34:16.317Z,62.54
2022-12-22T03:37:01.031Z,61.84
2022-12-22T03:39:45.819Z,61.94
2022-12-22T03:42:30.604Z,62.45
2022-12-22T03:45:15.530Z,62.46
2022-12-22T03:48:00.150Z,61.93
2022-12-22T03:50:44.828Z,62.20
2022-12-22T03:53:29.445Z,61.96
2022-12-22T03:56:14.180Z,61.92
2022-12-22T03:58:59.024Z,62.26
2022-12-22T04:01:43.730Z,61.74
2022-12-22T04:04:28.697Z,61.64
2022-12-22T04:07:13.486Z,61.95
2022-12-22T04:09:58.246Z,61.81
2022-12-22T04:12:42.983Z,61.31
2022-12-22T04:15:27.799Z,62.19
2022-12-22T04:18:12.549Z,62.31
2022-12-22T04:20:57.309Z,62.17
2022-12-22T04:23:42.060Z,61.82
2022-12-22T04:26:26.757Z,61.64
2022-12-22T04:29:11.481Z,61.41
2022-12-22T04:31:56.289Z,61.44
2022-12-22T04:34:41.516Z,61.07
2022-12-22T04:37:26.266Z,60.77
2022-12-22T04:40:11.071Z,60.45
2022-12-22T04:42:55.639Z,60.20
2022-12-22T04:45:40.471Z,59.57
2022-12-22T04:48:25.067Z,59.49
2022-12-22T04:51:09.836Z,59.86
2022-12-22T04:53:54.436Z,60.10
2022-12-22T04:56:39.157Z,60.38
2022-12-22T04:59:23.848Z,60.21
2022-12-22T05:02:08.897Z,60.53
2022-12-22T05:04:54.102Z,60.46
2022-12-22T05:07:38.885Z,59.86
2022-12-22T05:10:23.654Z,60.01
2022-12-22T05:13:08.321Z,59.79
2022-12-22T05:15:53.206Z,59.97
2022-12-22T05:18:38.081Z,59.86
2022-12-22T05:21:22.791Z,59.40
2022-12-22T05:24:07.547Z,58.82
2022-12-22T05:26:52.279Z,58.57
2022-12-22T05:29:37.192Z,57.94
2022-12-22T05:32:21.985Z,58.58
2022-12-22T05:35:06.970Z,58.07
2022-12-22T05:37:51.680Z,58.18
2022-12-22T05:40:36.351Z,57.85
2022-12-22T05:43:21.033Z,57.88
2022-12-22T05:46:05.890Z,57.86
2022-12-22T05:48:50.472Z,57.98
2022-12-22T05:51:35.139Z,58.65
2022-12-22T05:54:19.829Z,58.45
2022-12-22T05:57:04.628Z,57.88
2022-12-22T05:59:49.259Z,57.55
2022-12-22T06:02:34.140Z,57.50
2022-12-22T06:05:19.369Z,57.36
2022-12-22T06:08:04.064Z,57.23
2022-12-22T06:10:48.856Z,57.40
2022-12-22T06:13:33.526Z,57.37
2022-12-22T06:16:18.376Z,57.16
2022-12-22T06:19:02.993Z,57.77
2022-12-22T06:21:47.860Z,57.73
2022-12-22T06:24:32.769Z,57.71
2022-12-22T06:27:17.557Z,57.81
2022-12-22T06:30:02.429Z,57.75
2022-12-22T06:32:47.154Z,57.58
2022-12-22T06:35:31.931Z,57.13
2022-12-22T06:38:16.649Z,57.12
2022-12-22T06:41:01.488Z,56.94
2022-12-22T06:43:46.262Z,57.09
2022-12-22T06:46:31.035Z,56.45
2022-12-22T06:49:15.660Z,56.55
2022-12-22T06:52:00.410Z,56.12
2022-12-22T06:54:45.121Z,56.32
2022-12-22T06:57:29.829Z,56.75
2022-12-22T07:00:14.597Z,56.23
2022-12-22T07:02:59.319Z,56.41
2022-12-22T07:05:44.585Z,55.79
2022-12-22T07:08:29.356Z,55.90
2022-12-22T07:11:14.231Z,55.65
2022-12-22T07:13:58.796Z,55.21
2022-12-22T07:16:43.691Z,54.78
2022-12-22T07:19:28.758Z,53.23
2022-12-22T07:22:13.504Z,54.51
2022-12-22T07:24:58.316Z,53.48
2022-12-22T07:27:43.074Z,51.83
2022-12-22T07:30:27.816Z,52.38
2022-12-22T07:33:12.564Z,52.02
2022-12-22T07:35:57.292Z,52.51
2022-12-22T07:38:42.063Z,52.25
2022-12-22T07:41:26.939Z,51.20
2022-12-22T07:44:11.527Z,51.37
2022-12-22T07:46:56.377Z,51.04
2022-12-22T07:49:41.133Z,51.09
2022-12-22T07:52:25.811Z,51.20
2022-12-22T07:55:10.396Z,51.52
2022-12-22T07:57:55.093Z,51.36
2022-12-22T08:00:39.885Z,51.92
2022-12-22T08:03:24.688Z,52.20
2022-12-22T08:06:09.399Z,51.51
2022-12-22T08:08:54.248Z,51.11
2022-12-22T08:11:39.057Z,51.45
2022-12-22T08:14:23.644Z,51.55
2022-12-22T08:17:08.441Z,51.35
2022-12-22T08:19:53.046Z,51.79
2022-12-22T08:22:37.922Z,51.98
2022-12-22T08:25:22.553Z,52.91
2022-12-22T08:28:07.271Z,52.87
2022-12-22T08:30:52.120Z,50.68
2022-12-22T08:33:36.817Z,52.18
2022-12-22T08:36:21.719Z,51.39
2022-12-22T08:39:06.495Z,50.79
2022-12-22T08:41:51.412Z,52.45
2022-12-22T08:44:36.521Z,51.67
2022-12-22T08:47:21.549Z,50.94
2022-12-22T08:50:06.515Z,50.00
2022-12-22T08:52:51.221Z,48.36
2022-12-22T08:55:36.098Z,45.70
2022-12-22T08:58:20.747Z,50.10
2022-12-22T09:01:05.628Z,49.46
2022-12-22T09:03:50.635Z,49.01
2022-12-22T09:06:40.868Z,48.60
2022-12-22T09:09:26.356Z,48.41
2022-12-22T09:12:12.266Z,49.64
2022-12-22T09:14:57.105Z,49.89
2022-12-22T09:17:41.909Z,48.32
2022-12-22T09:20:26.666Z,50.97
2022-12-22T09:23:11.464Z,50.69
2022-12-22T09:25:56.131Z,52.30
2022-12-22T09:28:45.200Z,53.58
2022-12-22T09:31:34.845Z,55.38
2022-12-22T09:34:19.981Z,55.09
2022-12-22T09:37:04.810Z,53.52
2022-12-22T09:39:49.464Z,52.79
2022-12-22T09:42:34.458Z,52.65
2022-12-22T09:45:19.217Z,52.28
2022-12-22T09:48:03.909Z,50.93
2022-12-22T09:50:48.673Z,51.90
2022-12-22T09:53:33.402Z,50.54
2022-12-22T09:56:18.118Z,49.58
2022-12-22T09:59:02.867Z,50.00
2022-12-22T10:01:47.665Z,49.05
2022-12-22T10:04:32.891Z,47.41
2022-12-22T10:07:17.588Z,46.08
2022-12-22T10:10:02.240Z,49.80
2022-12-22T10:12:47.093Z,49.13
2022-12-22T10:15:31.693Z,48.67
2022-12-22T10:18:16.437Z,48.41
2022-12-22T10:21:01.264Z,48.26
2022-12-22T10:23:46.009Z,46.87
2022-12-22T10:26:31.817Z,48.20
2022-12-22T10:29:17.060Z,50.43
2022-12-22T10:32:02.040Z,50.36
2022-12-22T10:34:46.724Z,48.93
2022-12-22T10:37:31.472Z,46.99
2022-12-22T10:40:16.136Z,45.58
2022-12-22T10:43:01.062Z,45.24
2022-12-22T10:45:45.737Z,45.98
2022-12-22T10:48:31.399Z,49.08
2022-12-22T10:51:16.101Z,50.20
2022-12-22T10:54:00.908Z,50.37
2022-12-22T10:56:45.964Z,49.19
2022-12-22T10:59:30.811Z,49.92
2022-12-22T11:02:15.725Z,47.95
2022-12-22T11:05:01.002Z,48.97
2022-12-22T11:07:45.791Z,46.60
2022-12-22T11:10:30.633Z,47.68
2022-12-22T11:13:15.445Z,47.79
2022-12-22T11:16:00.057Z,47.29
2022-12-22T11:18:44.912Z,47.50
2022-12-22T11:21:29.612Z,49.18
2022-12-22T11:24:14.270Z,48.45
2022-12-22T11:26:59.215Z,48.37
2022-12-22T11:29:43.850Z,49.83
2022-12-22T11:32:28.555Z,50.87
2022-12-22T11:35:13.328Z,51.56
2022-12-22T11:37:58.079Z,51.67
2022-12-22T11:40:42.837Z,51.13
2022-12-22T11:43:27.568Z,50.26
2022-12-22T11:46:12.504Z,51.04
2022-12-22T11:48:57.747Z,50.81
2022-12-22T11:51:42.520Z,50.83
2022-12-22T11:54:27.354Z,50.64
2022-12-22T11:57:12.275Z,49.08
2022-12-22T11:59:56.891Z,49.20
2022-12-22T12:02:41.546Z,48.20
2022-12-22T12:05:26.288Z,46.64
2022-12-22T12:08:11.129Z,46.99
2022-12-22T12:10:55.770Z,47.81
2022-12-22T12:13:40.502Z,48.34
2022-12-22T12:16:25.393Z,48.02
2022-12-22T12:19:10.040Z,48.05
2022-12-22T12:21:54.755Z,47.61
2022-12-22T12:24:39.450Z,50.14
2022-12-22T12:27:24.251Z,50.03
2022-12-22T12:33:13.774Z,50.69
2022-12-22T12:35:58.625Z,51.33
2022-12-22T12:41:48.180Z,50.86
2022-12-22T12:44:32.961Z,50.73
2022-12-22T12:47:17.740Z,49.81
2022-12-22T12:50:02.513Z,47.62
2022-12-22T12:52:47.190Z,50.00
2022-12-22T12:55:33.215Z,51.26
2022-12-22T12:58:18.421Z,50.56
2022-12-22T13:01:03.166Z,49.12
2022-12-22T13:04:05.086Z,50.04
2022-12-22T13:06:51.256Z,49.50
2022-12-22T13:09:52.076Z,49.10
2022-12-22T13:12:36.822Z,51.49
2022-12-22T13:15:21.541Z,49.16
2022-12-22T13:18:06.308Z,48.56
2022-12-22T13:20:51.030Z,48.80
2022-12-22T13:23:51.341Z,50.16
2022-12-22T13:26:40.476Z,49.18
2022-12-22T13:29:25.298Z,47.96
2022-12-22T13:32:10.030Z,49.60
2022-12-22T13:35:29.901Z,49.98
2022-12-22T13:37:59.881Z,50.42
2022-12-22T13:40:44.530Z,49.45
2022-12-22T13:43:29.135Z,49.49
2022-12-22T13:46:14.012Z,50.11
2022-12-22T13:48:58.698Z,50.10
2022-12-22T13:51:43.440Z,48.77
2022-12-22T13:54:28.107Z,49.70
2022-12-22T13:57:13.567Z,50.21
2022-12-22T13:59:58.197Z,48.61
2022-12-22T14:02:43.176Z,48.96
2022-12-22T14:05:28.191Z,49.13
2022-12-22T14:08:13.081Z,49.57
2022-12-22T14:10:57.766Z,50.42
2022-12-22T14:13:42.997Z,48.66
2022-12-22T14:16:27.857Z,49.42
2022-12-22T14:19:12.823Z,51.23
2022-12-22T14:21:57.677Z,53.28
2022-12-22T14:24:42.264Z,53.70
2022-12-22T14:27:27.081Z,53.16
2022-12-22T14:30:11.679Z,52.26
2022-12-22T14:32:56.536Z,54.36
2022-12-22T14:35:41.091Z,54.57
2022-12-22T14:38:26.049Z,55.17
2022-12-22T14:41:10.674Z,55.83
2022-12-22T14:43:55.320Z,54.54
2022-12-22T14:46:40.147Z,55.05
2022-12-22T14:49:24.868Z,54.45
2022-12-22T14:52:09.574Z,54.75
2022-12-22T14:54:54.329Z,54.37
2022-12-22T14:57:39.208Z,53.92
2022-12-22T15:00:24.560Z,54.17
2022-12-22T15:03:09.330Z,54.81
2022-12-22T15:05:54.416Z,54.61
2022-12-22T15:08:39.379Z,55.21
2022-12-22T15:11:24.088Z,55.62
2022-12-22T15:14:08.813Z,55.79
2022-12-22T15:16:53.732Z,55.67
2022-12-22T15:19:38.475Z,55.95
2022-12-22T15:22:23.390Z,56.07
2022-12-22T15:25:08.023Z,55.86
2022-12-22T15:27:52.864Z,56.86
2022-12-22T15:30:37.644Z,57.38
2022-12-22T15:33:22.427Z,57.39
2022-12-22T15:36:07.074Z,57.04
2022-12-22T15:38:51.887Z,57.14
2022-12-22T15:41:36.702Z,57.82
2022-12-22T15:44:21.536Z,56.48
2022-12-22T15:47:06.276Z,56.28
2022-12-22T15:49:51.002Z,58.04
2022-12-22T15:52:35.856Z,57.83
2022-12-22T15:55:20.515Z,58.26
2022-12-22T15:58:05.321Z,57.61
2022-12-22T16:00:50.060Z,59.19
2022-12-22T16:03:35.027Z,59.59
2022-12-22T16:06:20.248Z,58.34
2022-12-22T16:09:04.949Z,59.44
2022-12-22T16:11:49.719Z,59.44
2022-12-22T16:14:39.361Z,59.40
2022-12-22T16:17:28.479Z,59.03
2022-12-22T16:20:13.420Z,59.13
2022-12-22T16:22:58.055Z,59.28
2022-12-22T16:25:42.965Z,60.17
2022-12-22T16:28:27.564Z,60.11
2022-12-22T16:31:12.340Z,59.84
2022-12-22T16:33:57.057Z,58.96
2022-12-22T16:36:41.814Z,58.91
2022-12-22T16:39:26.577Z,59.55
2022-12-22T16:42:11.246Z,59.74
2022-12-22T16:45:04.970Z,58.25
2022-12-22T16:47:49.831Z,58.86
2022-12-22T16:50:34.464Z,58.86
2022-12-22T16:53:19.426Z,59.05
2022-12-22T16:56:04.165Z,58.83
2022-12-22T16:58:48.893Z,59.41
2022-12-22T17:01:33.834Z,58.77
2022-12-22T17:04:18.884Z,59.42
2022-12-22T17:07:03.662Z,58.98
2022-12-22T17:09:48.267Z,58.76
2022-12-22T17:12:33.078Z,59.16
2022-12-22T17:15:17.879Z,59.24
2022-12-22T17:18:02.692Z,59.59
2022-12-22T17:20:47.412Z,59.26
2022-12-22T17:23:32.156Z,59.08
2022-12-22T17:26:16.843Z,59.27
2022-12-22T17:29:01.595Z,58.32
2022-12-22T17:31:46.411Z,58.39
2022-12-22T17:34:31.060Z,57.43
2022-12-22T17:37:15.878Z,57.39
2022-12-22T17:40:00.592Z,57.33
2022-12-22T17:42:45.419Z,56.75
2022-12-22T17:45:30.044Z,56.57
2022-12-22T17:48:14.888Z,56.79
2022-12-22T17:50:59.682Z,57.20
2022-12-22T17:53:44.507Z,56.32
2022-12-22T17:56:29.337Z,56.40
2022-12-22T17:59:13.966Z,57.19
2022-12-22T18:01:58.845Z,56.13
2022-12-22T18:04:43.919Z,56.35
2022-12-22T18:07:28.789Z,56.19
2022-12-22T18:10:13.453Z,56.70
2022-12-22T18:12:58.321Z,56.74
2022-12-22T18:15:42.961Z,57.22
2022-12-22T18:18:27.615Z,57.69
2022-12-22T18:21:12.363Z,57.98
2022-12-22T18:23:57.133Z,58.28
2022-12-22T18:26:42.039Z,58.85
2022-12-22T18:29:26.770Z,59.03
2022-12-22T18:32:11.622Z,58.52
2022-12-22T18:34:56.352Z,58.23
2022-12-22T18:37:41.165Z,57.91
2022-12-22T18:40:28.524Z,57.25
2022-12-22T18:43:13.718Z,57.96
2022-12-22T18:45:58.351Z,58.05
2022-12-22T18:48:43.165Z,58.61
2022-12-22T18:51:27.899Z,59.69
2022-12-22T18:54:16.974Z,59.69
2022-12-22T18:57:04.980Z,59.95
2022-12-22T18:59:49.796Z,58.80
2022-12-22T19:02:34.668Z,58.93
2022-12-22T19:05:19.885Z,58.80
2022-12-22T19:08:04.572Z,59.38
2022-12-22T19:10:49.436Z,60.72
2022-12-22T19:13:34.023Z,62.42
2022-12-22T19:16:18.859Z,62.08
2022-12-22T19:19:03.660Z,61.96
2022-12-22T19:21:48.421Z,61.72
2022-12-22T19:24:33.286Z,60.90
2022-12-22T19:27:17.893Z,61.85
2022-12-22T19:30:04.441Z,61.30
2022-12-22T19:32:49.728Z,62.64
2022-12-22T19:35:34.767Z,63.72
2022-12-22T19:38:19.403Z,63.62
2022-12-22T19:41:04.128Z,63.04
2022-12-22T19:43:48.981Z,62.98
2022-12-22T19:46:33.718Z,63.20
2022-12-22T19:49:18.917Z,62.85
2022-12-22T19:52:03.729Z,62.31
2022-12-22T19:54:49.082Z,61.87
2022-12-22T19:57:33.863Z,62.19
2022-12-22T20:00:18.619Z,63.06
2022-12-22T20:03:03.590Z,62.87
2022-12-22T20:05:48.684Z,62.04
2022-12-22T20:08:33.634Z,63.42
2022-12-22T20:11:18.300Z,63.31
2022-12-22T20:14:03.243Z,63.47
2022-12-22T20:16:47.853Z,62.48
2022-12-22T20:19:32.602Z,63.00
2022-12-22T20:22:17.315Z,62.25
2022-12-22T20:25:02.075Z,61.50
2022-12-22T20:27:46.873Z,61.30
2022-12-22T20:30:31.695Z,61.91
2022-12-22T20:33:16.699Z,61.02
2022-12-22T20:36:01.493Z,62.49
2022-12-22T20:38:46.260Z,62.70
2022-12-22T20:41:31.114Z,63.43
2022-12-22T20:44:16.027Z,62.39
2022-12-22T20:47:00.783Z,61.96
2022-12-22T20:49:45.543Z,63.67
2022-12-22T20:52:30.239Z,63.72
2022-12-22T20:55:14.955Z,61.94
2022-12-22T20:57:59.775Z,62.56
2022-12-22T21:00:44.487Z,63.91
2022-12-22T21:03:29.403Z,64.59
2022-12-22T21:06:14.743Z,63.88
2022-12-22T21:08:59.655Z,65.58
2022-12-22T21:11:44.324Z,64.76
2022-12-22T21:14:29.187Z,64.23
2022-12-22T21:17:13.937Z,64.26
2022-12-22T21:19:59.078Z,64.93
2022-12-22T21:22:43.822Z,66.16
2022-12-22T21:25:28.729Z,65.19
2022-12-22T21:28:13.574Z,64.86
2022-12-22T21:30:58.353Z,65.34
2022-12-22T21:33:43.031Z,64.63
2022-12-22T21:36:27.810Z,64.68
2022-12-22T21:39:12.575Z,65.59
2022-12-22T21:41:57.241Z,64.27
2022-12-22T21:44:42.079Z,64.30
2022-12-22T21:47:26.916Z,65.23
2022-12-22T21:50:11.616Z,64.58
2022-12-22T21:52:56.349Z,64.62
2022-12-22T21:55:41.092Z,64.98
2022-12-22T21:58:25.826Z,63.88
2022-12-22T22:01:11.536Z,64.16
2022-12-22T22:03:56.964Z,65.32
2022-12-22T22:06:41.544Z,65.49
2022-12-22T22:09:26.308Z,65.92
2022-12-22T22:12:11.166Z,65.96
2022-12-22T22:14:56.047Z,67.16
2022-12-22T22:17:40.864Z,65.67
2022-12-22T22:20:25.617Z,66.78
2022-12-22T22:23:10.531Z,65.53
2022-12-22T22:25:55.278Z,65.16
2022-12-22T22:28:39.986Z,64.06
2022-12-22T22:31:25.243Z,66.22
2022-12-22T22:34:09.990Z,64.25
2022-12-22T22:36:54.764Z,64.39
2022-12-22T22:39:39.548Z,65.41
2022-12-22T22:42:24.457Z,66.19
2022-12-22T22:45:09.209Z,65.82
2022-12-22T22:47:53.996Z,67.42
2022-12-22T22:50:38.622Z,65.47
2022-12-22T22:53:23.364Z,66.54
2022-12-22T22:56:08.095Z,66.17
2022-12-22T22:58:52.969Z,66.02
2022-12-22T23:01:37.669Z,65.41
2022-12-22T23:04:22.482Z,64.24
2022-12-22T23:07:07.097Z,65.30
2022-12-22T23:09:51.876Z,66.27
2022-12-22T23:12:36.502Z,66.34
2022-12-22T23:15:21.376Z,65.00
2022-12-22T23:18:06.144Z,65.25
2022-12-22T23:20:50.948Z,65.32
2022-12-22T23:23:35.689Z,66.13
2022-12-22T23:26:20.381Z,67.26
2022-12-22T23:29:05.065Z,66.12
2022-12-22T23:31:49.952Z,65.38
2022-12-22T23:34:34.709Z,65.50
2022-12-22T23:37:19.970Z,66.47
2022-12-22T23:40:42.107Z,66.08
2022-12-22T23:43:10.127Z,65.77
2022-12-22T23:45:54.643Z,65.74
2022-12-22T23:48:39.557Z,66.52
2022-12-22T23:51:24.187Z,66.33
2022-12-22T23:54:09.021Z,66.35
2022-12-22T23:56:53.616Z,66.76
2022-12-22T23:59:38.461Z,66.97
